Weather observations for the past three days for
INDEPENDENCE
| Date | Time (cdt) | Wind (mph) | Vis. (mi.) | Weather | Sky Cond. | Temperature (ºF) | Relative Humidity | Wind Chill (°F) | Heat Index (°F) | Pressure | Precipitation (in) | ||||||
|---|---|---|---|---|---|---|---|---|---|---|---|---|---|---|---|---|---|
| Air | Dwpt | 6 hour | altimeter (in) | sea level (mb) | 1 hr | 3 hr | 6 hr | ||||||||||
| Max. | Min. | ||||||||||||||||
| 08 | 03:15 | S 10 | 10.00 | Fair | CLR | 53.6 | 44.6 | 72% | 29.87 | 0.0 | |||||||
| 08 | 02:55 | S 12 | 10.00 | Fair | CLR | 53.6 | 44.6 | 72% | 29.87 | 0.0 | |||||||
| 08 | 02:35 | S 10 | 10.00 | Fair | CLR | 55.4 | 44.6 | 67% | 29.88 | 0.0 | |||||||
| 08 | 02:15 | S 12 | 10.00 | Fair | CLR | 55.4 | 44.6 | 67% | 29.89 | 0.0 | |||||||
| 08 | 01:55 | S 12 | 10.00 | Fair | CLR | 55.4 | 44.6 | 67% | 29.89 | 0.0 | |||||||
| 08 | 01:35 | S 13 | 10.00 | Fair | CLR | 55.4 | 44.6 | 67% | 29.89 | 0.0 | |||||||
| 08 | 01:15 | S 12 | 10.00 | Fair | CLR | 55.4 | 44.6 | 67% | 29.89 | 0.0 | |||||||
| 08 | 00:55 | S 12 | 10.00 | Fair | CLR | 55.4 | 44.6 | 67% | 29.89 | 0.0 | |||||||
| 08 | 00:35 | S 10 | 10.00 | Fair | CLR | 55.4 | 44.6 | 67% | 29.89 | 0.0 | |||||||
| 08 | 00:15 | S 9 | 10.00 | Fair | CLR | 55.4 | 44.6 | 67% | 29.9 | 0.0 | |||||||
| 07 | 23:55 | S 9 | 10.00 | Fair | CLR | 55.4 | 44.6 | 67% | 29.9 | 0.0 | |||||||
| 07 | 23:35 | S 8 | 10.00 | Fair | CLR | 53.6 | 44.6 | 72% | 29.91 | 0.0 | |||||||
| 07 | 23:15 | S 8 | 10.00 | Fair | CLR | 53.6 | 44.6 | 72% | 29.91 | 0.0 | |||||||
| 07 | 22:55 | S 9 | 10.00 | Fair | CLR | 55.4 | 44.6 | 67% | 29.91 | 0.0 | |||||||
| 07 | 22:35 | S 10 | 10.00 | Fair | CLR | 57.2 | 44.6 | 63% | 29.91 | 0.0 | |||||||
| 07 | 22:15 | S 12 | 10.00 | Fair | CLR | 57.2 | 46.4 | 67% | 29.92 | 0.0 | |||||||
| 07 | 21:55 | S 10 | 10.00 | Fair | CLR | 55.4 | 46.4 | 72% | 29.92 | 0.0 | |||||||
| 07 | 21:35 | S 10 | 10.00 | Fair | CLR | 55.4 | 46.4 | 72% | 29.91 | 0.0 | |||||||
| 07 | 21:15 | S 9 | 10.00 | Fair | CLR | 55.4 | 46.4 | 72% | 29.91 | 0.0 | |||||||
| 07 | 20:55 | S 9 | 10.00 | Fair | CLR | 57.2 | 46.4 | 67% | 29.91 | 0.0 | |||||||
| 07 | 20:35 | S 8 | 10.00 | Fair | CLR | 59 | 46.4 | 63% | 29.9 | 0.0 | |||||||
| 07 | 20:15 | S 8 | 10.00 | Fair | CLR | 59 | 48.2 | 68% | 29.89 | 0.0 | |||||||
| 07 | 19:55 | S 9 | 10.00 | Fair | CLR | 62.6 | 48.2 | 60% | 29.89 | 0.0 | |||||||
| 07 | 19:35 | S 8 | 10.00 | Fair | CLR | 66.2 | 46.4 | 49% | 29.89 | 0.0 | |||||||
| 07 | 19:15 | S 9 | 10.00 | Fair | CLR | 68 | 44.6 | 43% | 29.89 | 0.0 | |||||||
| 07 | 18:55 | S 9 | 10.00 | Fair | CLR | 69.8 | 44.6 | 40% | 29.89 | 0.0 | |||||||
| 07 | 18:35 | S 13 | 10.00 | Fair | CLR | 69.8 | 44.6 | 40% | 29.9 | 0.0 | |||||||
| 07 | 18:15 | SW 13 | 10.00 | Fair | CLR | 69.8 | 44.6 | 40% | 29.9 | 0.0 | |||||||
| 07 | 17:55 | SW 10 | 10.00 | Fair | CLR | 71.6 | 44.6 | 38% | 29.9 | 0.0 | |||||||
| 07 | 17:35 | SW 12 | 10.00 | Fair | CLR | 71.6 | 44.6 | 38% | 29.91 | 0.0 | |||||||
| 07 | 17:15 | S 17 | 10.00 | Fair | CLR | 71.6 | 44.6 | 38% | 29.91 | 0.0 | |||||||
| 07 | 16:55 | SW 14 G 18 | 10.00 | Fair | CLR | 71.6 | 46.4 | 41% | 29.92 | 0.0 | |||||||
| 07 | 16:35 | SW 14 G 22 | 10.00 | Fair | CLR | 69.8 | 44.6 | 40% | 29.93 | 0.0 | |||||||
| 07 | 16:15 | SW 14 G 21 | 10.00 | Fair | CLR | 69.8 | 46.4 | 43% | 29.93 | 0.0 | |||||||
| 07 | 15:55 | SW 16 G 21 | 10.00 | Fair | CLR | 69.8 | 44.6 | 40% | 29.94 | 0.0 | |||||||
| 07 | 15:35 | SW 12 G 22 | 10.00 | Fair | CLR | 69.8 | 44.6 | 40% | 29.96 | 0.0 | |||||||
| 07 | 15:15 | SW 14 G 21 | 10.00 | Fair | CLR | 69.8 | 44.6 | 40% | 29.97 | 0.0 | |||||||
| 07 | 14:55 | SW 16 G 22 | 10.00 | Fair | CLR | 69.8 | 44.6 | 40% | 29.98 | 0.0 | |||||||
| 07 | 14:35 | SW 15 G 21 | 10.00 | Partly Cloudy | SCT060 | 68 | 44.6 | 43% | 29.99 | 0.0 | |||||||
| 07 | 14:15 | W 16 G 20 | 10.00 | Fair | CLR | 68 | 46.4 | 46% | 30 | 0.0 | |||||||
| 07 | 13:55 | SW 10 G 17 | 10.00 | Fair | CLR | 68 | 46.4 | 46% | 30 | 0.0 | |||||||
| 07 | 13:35 | SW 14 G 21 | 10.00 | Fair | CLR | 66.2 | 44.6 | 46% | 30.01 | 0.0 | |||||||
| 07 | 13:15 | SW 15 G 21 | 10.00 | Fair | CLR | 66.2 | 44.6 | 46% | 30.02 | 0.0 | |||||||
| 07 | 12:55 | SW 16 G 22 | 10.00 | Fair | CLR | 66.2 | 42.8 | 43% | 30.03 | 0.0 | |||||||
| 07 | 12:35 | SW 15 G 21 | 10.00 | Fair | CLR | 66.2 | 44.6 | 46% | 30.03 | 0.0 | |||||||
| 07 | 12:15 | SW 13 G 23 | 10.00 | Fair | CLR | 64.4 | 44.6 | 49% | 30.05 | 0.0 | |||||||
| 07 | 11:55 | SW 16 G 20 | 10.00 | Fair | CLR | 64.4 | 42.8 | 46% | 30.06 | 0.0 | |||||||
| 07 | 11:35 | SW 14 | 10.00 | Fair | CLR | 62.6 | 42.8 | 49% | 30.06 | 0.0 | |||||||
| 07 | 11:15 | SW 15 | 10.00 | Fair | CLR | 62.6 | 42.8 | 49% | 30.07 | 0.0 | |||||||
| 07 | 10:55 | SW 15 | 10.00 | Fair | CLR | 62.6 | 42.8 | 49% | 30.08 | 0.0 | |||||||
| 07 | 10:35 | SW 14 G 18 | 10.00 | Fair | CLR | 60.8 | 42.8 | 52% | 30.08 | 0.0 | |||||||
| 07 | 10:15 | S 12 | 10.00 | Fair | CLR | 60.8 | 42.8 | 52% | 30.08 | 0.0 | |||||||
| 07 | 09:55 | SW 14 | 10.00 | Fair | CLR | 59 | 42.8 | 55% | 30.09 | 0.0 | |||||||
| 07 | 09:35 | SW 12 | 10.00 | Fair | CLR | 57.2 | 42.8 | 59% | 30.1 | 0.0 | |||||||
| 07 | 09:15 | SW 9 | 10.00 | Fair | CLR | 57.2 | 42.8 | 59% | 30.1 | 0.0 | |||||||
| 07 | 08:55 | SW 10 | 10.00 | Fair | CLR | 55.4 | 44.6 | 67% | 30.1 | 0.0 | |||||||
| 07 | 08:35 | SW 7 | 10.00 | Fair | CLR | 53.6 | 44.6 | 72% | 30.1 | 0.0 | |||||||
| 07 | 08:15 | W 6 | 10.00 | Fair | CLR | 50 | 44.6 | 82% | 48 | 30.1 | 0.0 | ||||||
| 07 | 07:55 | SW 3 | 10.00 | Fair | CLR | 48.2 | 44.6 | 87% | 30.1 | 0.0 | |||||||
| 07 | 07:35 | S 5 | 10.00 | Fair | CLR | 46.4 | 44.6 | 93% | 45 | 30.09 | 0.0 | ||||||
| 07 | 07:15 | S 3 | 10.00 | Fair | CLR | 44.6 | 42.8 | 93% | 30.09 | 0.0 | |||||||
| 07 | 06:55 | S 5 | 10.00 | Fair | CLR | 41 | 41 | 100% | 38 | 30.08 | 0.0 | ||||||
| 07 | 06:35 | S 3 | 10.00 | Fair | CLR | 42.8 | 41 | 93% | 30.08 | 0.0 | |||||||
| 07 | 06:15 | SW 3 | 10.00 | Fair | CLR | 42.8 | 41 | 93% | 30.08 | 0.0 | |||||||
| 07 | 05:55 | Calm | 10.00 | Partly Cloudy | SCT090 | 44.6 | 42.8 | 93% | 30.08 | 0.0 | |||||||
| 07 | 05:35 | Calm | 10.00 | Partly Cloudy | SCT090 | 44.6 | 42.8 | 93% | 30.08 | 0.0 | |||||||
| 07 | 05:15 | Calm | 10.00 | Partly Cloudy | SCT090 | 44.6 | 42.8 | 93% | 30.08 | 0.0 | |||||||
| 07 | 04:55 | Calm | 10.00 | Partly Cloudy | SCT120 | 44.6 | 44.6 | 100% | 30.07 | 0.0 | |||||||
| 07 | 04:35 | Calm | 10.00 | Overcast | OVC120 | 46.4 | 44.6 | 93% | 30.08 | 0.0 | |||||||
| 07 | 04:15 | Calm | 10.00 | Overcast | OVC120 | 46.4 | 44.6 | 93% | 30.08 | 0.0 | |||||||
| 07 | 03:55 | Calm | 10.00 | Overcast | OVC120 | 44.6 | 44.6 | 100% | 30.08 | 0.0 | |||||||
| 07 | 03:35 | Calm | 10.00 | Overcast | OVC120 | 44.6 | 42.8 | 93% | 30.07 | 0.0 | |||||||
| 07 | 03:15 | Calm | 10.00 | Overcast | OVC110 | 44.6 | 42.8 | 93% | 30.08 | 0.0 | |||||||
| 07 | 02:55 | Calm | 10.00 | Overcast | SCT090 OVC110 | 44.6 | 42.8 | 93% | 30.08 | 0.0 | |||||||
| 07 | 02:15 | SW 3 | 10.00 | Mostly Cloudy | SCT090 BKN110 | 42.8 | 41 | 93% | 30.09 | 0.0 | |||||||
| 07 | 01:55 | Calm | 10.00 | Fair | CLR | 42.8 | 41 | 93% | 30.09 | 0.0 | |||||||
| 07 | 01:35 | Calm | 10.00 | Fair | CLR | 42.8 | 41 | 93% | 30.1 | 0.0 | |||||||
| 07 | 01:15 | Calm | 10.00 | Fair | CLR | 42.8 | 41 | 93% | 30.1 | 0.0 | |||||||
| 07 | 00:55 | Calm | 10.00 | Fair | CLR | 44.6 | 41 | 87% | 30.1 | 0.0 | |||||||
| 07 | 00:35 | Calm | 10.00 | Fair | CLR | 44.6 | 41 | 87% | 30.1 | 0.0 | |||||||
| 07 | 00:15 | Calm | 10.00 | Fair | CLR | 44.6 | 41 | 87% | 30.09 | 0.0 | |||||||
| 06 | 23:55 | Calm | 10.00 | Fair | CLR | 46.4 | 41 | 82% | 30.09 | 0.0 | |||||||
| 06 | 23:35 | Calm | 10.00 | Fair | CLR | 46.4 | 41 | 82% | 30.09 | 0.0 | |||||||
| 06 | 23:15 | NW 3 | 10.00 | Fair | CLR | 46.4 | 42.8 | 87% | 30.1 | 0.0 | |||||||
| 06 | 22:55 | N 5 | 10.00 | Fair | CLR | 46.4 | 41 | 82% | 45 | 30.09 | 0.0 | ||||||
| 06 | 22:35 | N 5 | 10.00 | Fair | CLR | 48.2 | 39.2 | 71% | 47 | 30.09 | 0.0 | ||||||
| 06 | 22:15 | N 5 | 10.00 | Fair | CLR | 46.4 | 41 | 82% | 45 | 30.09 | 0.0 | ||||||
| 06 | 21:55 | N 3 | 10.00 | Fair | CLR | 50 | 39.2 | 67% | 30.08 | 0.0 | |||||||
| 06 | 21:35 | N 3 | 10.00 | Fair | CLR | 50 | 39.2 | 67% | 30.08 | 0.0 | |||||||
| 06 | 21:15 | N 6 | 10.00 | Fair | CLR | 50 | 39.2 | 67% | 48 | 30.07 | 0.0 | ||||||
| 06 | 20:55 | N 6 | 10.00 | Fair | CLR | 50 | 39.2 | 67% | 48 | 30.07 | 0.0 | ||||||
| 06 | 20:35 | N 8 | 10.00 | Fair | CLR | 50 | 41 | 71% | 47 | 30.06 | 0.0 | ||||||
| 06 | 20:15 | N 7 | 10.00 | Fair | CLR | 51.8 | 41 | 67% | 30.06 | 0.0 | |||||||
| 06 | 19:55 | N 9 | 10.00 | Fair | CLR | 55.4 | 37.4 | 51% | 30.05 | 0.0 | |||||||
| 06 | 19:35 | N 8 | 10.00 | Fair | CLR | 59 | 37.4 | 45% | 30.05 | 0.0 | |||||||
| 06 | 19:15 | N 13 | 10.00 | Fair | CLR | 59 | 35.6 | 42% | 30.04 | 0.0 | |||||||
| 06 | 18:55 | N 14 G 22 | 10.00 | Fair | CLR | 60.8 | 37.4 | 42% | 30.03 | 0.0 | |||||||
| 06 | 18:35 | N 13 | 10.00 | Fair | CLR | 62.6 | 37.4 | 39% | 30.03 | 0.0 | |||||||
| 06 | 18:15 | NE 13 | 10.00 | Fair | CLR | 62.6 | 37.4 | 39% | 30.02 | 0.0 | |||||||
| 06 | 17:55 | NE 14 G 21 | 10.00 | Fair | CLR | 62.6 | 37.4 | 39% | 30.02 | 0.0 | |||||||
| 06 | 17:35 | N 14 | 10.00 | Partly Cloudy | SCT060 | 62.6 | 37.4 | 39% | 30.02 | 0.0 | |||||||
| 06 | 17:15 | NE 16 | 10.00 | Partly Cloudy | SCT060 | 60.8 | 37.4 | 42% | 30.02 | 0.0 | |||||||
| 06 | 16:55 | NE 13 G 18 | 10.00 | Partly Cloudy | SCT060 | 62.6 | 39.2 | 42% | 30.02 | 0.0 | |||||||
| 06 | 16:35 | NE 8 | 10.00 | Partly Cloudy | SCT060 | 62.6 | 39.2 | 42% | 30.02 | 0.0 | |||||||
| 06 | 16:15 | NE 16 | 10.00 | Partly Cloudy | SCT060 | 62.6 | 39.2 | 42% | 30.03 | 0.0 | |||||||
| 06 | 15:55 | N 14 | 10.00 | Fair | CLR | 62.6 | 39.2 | 42% | 30.04 | 0.0 | |||||||
| 06 | 15:35 | NE 16 | 10.00 | Partly Cloudy | SCT060 SCT110 | 60.8 | 39.2 | 45% | 30.04 | 0.0 | |||||||
| 06 | 15:15 | N 15 G 20 | 10.00 | Mostly Cloudy | SCT060 BKN110 | 62.6 | 39.2 | 42% | 30.05 | 0.0 | |||||||
| 06 | 14:55 | NE 10 G 22 | 10.00 | Partly Cloudy | SCT060 | 62.6 | 39.2 | 42% | 30.05 | 0.0 | |||||||
| 06 | 14:35 | NE 17 G 22 | 10.00 | Fair | CLR | 62.6 | 39.2 | 42% | 30.05 | 0.0 | |||||||
| 06 | 14:15 | NE 14 G 21 | 10.00 | Fair | CLR | 60.8 | 39.2 | 45% | 30.06 | 0.0 | |||||||
| 06 | 13:55 | NE 10 | 10.00 | Fair | CLR | 60.8 | 39.2 | 45% | 30.06 | 0.0 | |||||||
| 06 | 13:35 | NE 15 G 21 | 10.00 | Partly Cloudy | SCT110 | 60.8 | 41 | 48% | 30.08 | 0.0 | |||||||
| 06 | 13:15 | NE 18 G 22 | 10.00 | Fair | CLR | 62.6 | 39.2 | 42% | 30.08 | 0.0 | |||||||
| 06 | 12:55 | NE 13 | 10.00 | Fair | CLR | 60.8 | 41 | 48% | 30.09 | 0.0 | |||||||
| 06 | 12:35 | NE 13 G 24 | 10.00 | Fair | CLR | 59 | 39.2 | 48% | 30.09 | 0.0 | |||||||
| 06 | 12:15 | NE 16 | 10.00 | Partly Cloudy | SCT075 | 59 | 41 | 51% | 30.1 | 0.0 | |||||||
| 06 | 11:55 | NE 15 | 10.00 | Fair | CLR | 59 | 41 | 51% | 30.1 | 0.0 | |||||||
| 06 | 11:35 | NE 13 G 21 | 10.00 | Mostly Cloudy | BKN075 | 59 | 41 | 51% | 30.09 | 0.0 | |||||||
| 06 | 11:15 | NE 15 | 10.00 | Overcast | OVC075 | 55.4 | 39.2 | 55% | 30.09 | 0.0 | |||||||
| 06 | 10:55 | N 10 | 10.00 | Overcast | OVC075 | 55.4 | 39.2 | 55% | 30.09 | 0.0 | |||||||
| 06 | 10:35 | N 15 G 18 | 10.00 | Mostly Cloudy | BKN075 | 55.4 | 39.2 | 55% | 30.08 | 0.0 | |||||||
| 06 | 10:15 | N 13 | 10.00 | Partly Cloudy | SCT032 SCT075 | 55.4 | 42.8 | 63% | 30.06 | 0.0 | |||||||
| 06 | 09:55 | NE 13 | 10.00 | Partly Cloudy | SCT032 SCT075 | 53.6 | 42.8 | 67% | 30.05 | 0.0 | |||||||
| 06 | 09:35 | NE 10 G 17 | 10.00 | Mostly Cloudy | BKN075 | 53.6 | 41 | 63% | 30.07 | 0.0 | |||||||
| 06 | 09:15 | N 13 | 10.00 | Partly Cloudy | SCT065 | 53.6 | 42.8 | 67% | 30.07 | 0.0 | |||||||
| 06 | 08:55 | NE 12 | 10.00 | Partly Cloudy | SCT065 SCT110 | 51.8 | 41 | 67% | 30.08 | 0.0 | |||||||
| 06 | 08:35 | NE 10 | 10.00 | Mostly Cloudy | BKN110 | 50 | 42.8 | 76% | 46 | 30.08 | 0.0 | ||||||
| 06 | 08:15 | NE 7 | 10.00 | Partly Cloudy | SCT080 SCT110 | 48.2 | 42.8 | 82% | 46 | 30.07 | 0.0 | ||||||
| 06 | 07:55 | NE 8 | 10.00 | Overcast | BKN060 OVC080 | 48.2 | 42.8 | 82% | 45 | 30.06 | 0.0 | ||||||
| 06 | 07:35 | NE 7 | 10.00 | Overcast | OVC060 | 46.4 | 42.8 | 87% | 43 | 30.06 | 0.0 | ||||||
| 06 | 07:15 | NE 6 | 10.00 | Overcast | OVC060 | 46.4 | 42.8 | 87% | 44 | 30.05 | 0.0 | ||||||
| 06 | 06:55 | E 5 | 10.00 | Overcast | OVC060 | 46.4 | 41 | 82% | 45 | 30.03 | 0.0 | ||||||
| 06 | 06:35 | NE 7 | 10.00 | Overcast | OVC060 | 46.4 | 41 | 82% | 43 | 30.03 | 0.0 | ||||||
| 06 | 05:55 | NE 12 | 10.00 | Overcast | OVC050 | 46.4 | 41 | 82% | 42 | 30.04 | 0.0 | ||||||
| 06 | 05:35 | NE 17 | 10.00 | Overcast | BKN050 OVC070 | 46.4 | 41 | 82% | 40 | 30.02 | 0.0 | ||||||
| 06 | 05:15 | N 12 | 10.00 | Overcast | BKN050 OVC070 | 46.4 | 42.8 | 87% | 42 | 30.02 | 0.0 | ||||||
| 06 | 04:55 | N 12 | 10.00 | Overcast | OVC048 | 46.4 | 42.8 | 87% | 42 | 30.02 | 0.0 | ||||||
| 06 | 04:35 | N 8 | 10.00 | Overcast | SCT026 OVC048 | 46.4 | 44.6 | 93% | 43 | 30 | 0.0 | ||||||
| 06 | 04:15 | N 6 | 10.00 | Mostly Cloudy | SCT021 BKN026 BKN047 | 44.6 | 44.6 | 100% | 42 | 30.01 | 0.0 | ||||||
| 06 | 03:55 | N 5 | 10.00 | Mostly Cloudy | BKN110 | 44.6 | 44.6 | 100% | 43 | 29.98 | 0.0 | ||||||
| 06 | 03:35 | N 6 | 10.00 | Mostly Cloudy | BKN110 | 44.6 | 44.6 | 100% | 42 | 29.96 | 0.0 | ||||||
| 06 | 03:15 | N 7 | 10.00 | Partly Cloudy | SCT110 | 44.6 | 42.8 | 93% | 41 | 29.96 | 0.0 | ||||||
| 06 | 02:55 | NE 7 | 10.00 | Light Rain | SCT040 SCT050 BKN110 | 44.6 | 42.8 | 93% | 41 | 29.96 | 0.0 | ||||||
| 06 | 02:35 | NE 8 | 10.00 | Light Rain | SCT041 SCT060 BKN095 | 44.6 | 42.8 | 93% | 41 | 29.96 | 0.0 | ||||||
| 06 | 02:15 | NE 8 | 10.00 | Light Rain | SCT060 SCT110 | 46.4 | 42.8 | 87% | 43 | 29.95 | 0.0 | ||||||
| 06 | 01:55 | N 8 | 10.00 | Overcast | OVC060 | 46.4 | 44.6 | 93% | 43 | 29.96 | 0.0 | ||||||
| 06 | 01:35 | N 8 | 10.00 | Overcast | OVC060 | 46.4 | 44.6 | 93% | 43 | 29.95 | 0.0 | ||||||
| 06 | 01:15 | NE 8 | 10.00 | Overcast | OVC060 | 46.4 | 44.6 | 93% | 43 | 29.95 | 0.0 | ||||||
| 06 | 00:55 | NE 6 | 10.00 | Overcast | OVC060 | 46.4 | 44.6 | 93% | 44 | 29.95 | 0.0 | ||||||
| 06 | 00:15 | NE 7 | 10.00 | Overcast | OVC060 | 46.4 | 44.6 | 93% | 43 | 29.96 | 0.0 | ||||||
| 05 | 23:55 | N 6 | 10.00 | Overcast | OVC060 | 46.4 | 44.6 | 93% | 44 | 29.97 | 0.0 | ||||||
| 05 | 23:35 | NE 5 | 10.00 | Overcast | OVC060 | 46.4 | 44.6 | 93% | 45 | 29.96 | 0.0 | ||||||
| 05 | 23:15 | N 3 | 10.00 | Overcast | OVC060 | 46.4 | 44.6 | 93% | 29.97 | 0.0 | |||||||
| 05 | 22:55 | NE 7 | 10.00 | Overcast | OVC060 | 46.4 | 44.6 | 93% | 43 | 29.96 | 0.0 | ||||||
| 05 | 22:35 | N 3 | 10.00 | Overcast | OVC060 | 46.4 | 44.6 | 93% | 29.96 | 0.0 | |||||||
| 05 | 22:15 | NE 6 | 10.00 | Overcast | OVC060 | 46.4 | 42.8 | 87% | 44 | 29.95 | 0.0 | ||||||
| 05 | 21:55 | NE 8 | 10.00 | Overcast | OVC050 | 46.4 | 42.8 | 87% | 43 | 29.94 | 0.0 | ||||||
| 05 | 21:35 | N 7 | 10.00 | Overcast | OVC050 | 46.4 | 42.8 | 87% | 43 | 29.93 | 0.0 | ||||||
| 05 | 21:15 | N 9 | 10.00 | Light Rain | OVC060 | 46.4 | 42.8 | 87% | 42 | 29.92 | 0.0 | ||||||
| 05 | 20:55 | N 8 | 10.00 | Overcast | OVC060 | 46.4 | 42.8 | 87% | 43 | 29.91 | 0.0 | 0.09 | |||||
| 05 | 20:35 | NE 10 | 10.00 | Light Rain | OVC060 | 46.4 | 42.8 | 87% | 42 | 29.89 | 0.0 | 0.09 | |||||
| 05 | 20:15 | NE 10 | 10.00 | Rain | SCT045 OVC050 | 46.4 | 42.8 | 87% | 42 | 29.89 | 0.0 | 0.04 | |||||
| 05 | 19:55 | NE 15 | 10.00 | Light Rain | OVC043 | 46.4 | 41 | 82% | 41 | 29.88 | 0.0 | ||||||
| 05 | 19:35 | NE 21 G 25 | 10.00 | Overcast and Breezy | BKN043 OVC050 | 48.2 | 39.2 | 71% | 42 | 29.87 | 0.0 | ||||||
| 05 | 19:15 | NE 17 G 26 | 10.00 | Overcast | OVC043 | 48.2 | 39.2 | 71% | 42 | 29.88 | 0.0 | ||||||
| 05 | 18:55 | NE 17 G 24 | 10.00 | Overcast | BKN041 OVC050 | 48.2 | 41 | 76% | 42 | 29.87 | 0.0 | ||||||
| 05 | 18:35 | NE 21 G 29 | 10.00 | Overcast and Breezy | BKN041 OVC050 | 48.2 | 41 | 76% | 42 | 29.86 | 0.0 | ||||||
| 05 | 18:15 | NE 22 | 10.00 | Light Rain and Breezy | OVC039 | 48.2 | 41 | 76% | 41 | 29.86 | 0.0 | ||||||
| 05 | 17:55 | NE 21 | 10.00 | Overcast and Breezy | BKN037 OVC046 | 50 | 41 | 71% | 44 | 29.86 | 0.0 | ||||||
| 05 | 17:35 | NE 17 G 21 | 10.00 | Overcast | SCT018 SCT024 OVC047 | 50 | 42.8 | 76% | 45 | 29.85 | 0.0 | ||||||
| 05 | 17:15 | NE 16 | 10.00 | Overcast | BKN020 BKN025 OVC045 | 48.2 | 44.6 | 87% | 43 | 29.85 | 0.0 | ||||||
| 05 | 16:55 | N 17 G 25 | 10.00 | Overcast | BKN022 OVC027 | 50 | 42.8 | 76% | 45 | 29.85 | 0.0 | ||||||
| 05 | 16:35 | NE 21 G 30 | 10.00 | Overcast and Breezy | SCT025 BKN034 OVC043 | 50 | 42.8 | 76% | 44 | 29.85 | 0.0 | ||||||
| 05 | 16:15 | NE 16 G 24 | 10.00 | Light Drizzle | OVC041 | 50 | 42.8 | 76% | 45 | 29.85 | 0.0 | ||||||
| 05 | 15:55 | NE 18 G 25 | 10.00 | Overcast | OVC039 | 50 | 42.8 | 76% | 44 | 29.85 | 0.0 | ||||||
| 05 | 15:35 | NE 15 G 21 | 10.00 | Overcast | OVC039 | 50 | 41 | 71% | 45 | 29.85 | 0.0 | ||||||
| 05 | 15:15 | NE 21 G 31 | 10.00 | Overcast and Breezy | OVC038 | 50 | 41 | 71% | 44 | 29.85 | 0.0 | ||||||
| 05 | 14:35 | NE 23 G 26 | 10.00 | Overcast and Breezy | SCT035 OVC040 | 50 | 42.8 | 76% | 44 | 29.85 | 0.0 | ||||||
| 05 | 14:15 | NE 26 G 33 | 10.00 | Light Rain and Windy | OVC040 | 51.8 | 41 | 67% | 29.83 | 0.0 | |||||||
| 05 | 13:55 | NE 24 G 36 | 10.00 | Overcast and Breezy | OVC038 | 50 | 41 | 71% | 43 | 29.84 | 0.0 | ||||||
| 05 | 13:35 | NE 26 G 35 | 10.00 | Light Rain and Windy | OVC036 | 51.8 | 41 | 67% | 29.82 | 0.0 | |||||||
| 05 | 13:15 | NE 21 G 29 | 10.00 | Light Rain and Breezy | OVC036 | 51.8 | 42.8 | 72% | 29.82 | 0.0 | |||||||
| 05 | 12:55 | NE 21 G 37 | 10.00 | Overcast and Breezy | OVC038 | 51.8 | 42.8 | 72% | 29.82 | 0.0 | |||||||
| 05 | 12:35 | NE 20 G 33 | 10.00 | Light Rain | OVC038 | 51.8 | 44.6 | 77% | 29.81 | 0.0 | |||||||
| 05 | 12:15 | NE 24 G 28 | 10.00 | Overcast and Breezy | OVC036 | 51.8 | 42.8 | 72% | 29.8 | 0.0 | |||||||
| 05 | 11:55 | NE 21 G 32 | 10.00 | Overcast and Breezy | OVC036 | 51.8 | 42.8 | 72% | 29.8 | 0.0 | |||||||
| 05 | 11:35 | NE 21 G 29 | 10.00 | Overcast and Breezy | OVC034 | 51.8 | 44.6 | 77% | 29.79 | 0.0 | |||||||
| 05 | 11:15 | NE 18 G 31 | 10.00 | Overcast | OVC036 | 51.8 | 44.6 | 77% | 29.78 | 0.0 | |||||||
| 05 | 10:55 | NE 22 G 35 | 10.00 | Light Rain and Breezy | OVC036 | 50 | 44.6 | 82% | 44 | 29.77 | 0.0 | ||||||
| 05 | 10:35 | NE 23 G 28 | 10.00 | Light Rain and Breezy | BKN036 OVC042 | 50 | 46.4 | 88% | 44 | 29.78 | 0.0 | ||||||
| 05 | 10:15 | NE 24 G 28 | 10.00 | Light Rain and Breezy | SCT017 OVC040 | 50 | 48.2 | 94% | 43 | 29.79 | 0.0 | ||||||
| 05 | 09:55 | NE 20 G 26 | 0.00 | NULL | NULL | 50 | 48.2 | 94% | 44 | 29.78 | 0.0 | 0.02 | |||||
| 05 | 09:35 | N 21 | 10.00 | Light Rain and Breezy | OVC031 | 50 | 48.2 | 94% | 44 | 29.78 | 0.0 | 0.01 | |||||
| 05 | 09:15 | NE 22 G 33 | 10.00 | Rain and Breezy | SCT031 OVC039 | 51.8 | 46.4 | 82% | 29.76 | 0.0 | |||||||
| 05 | 08:55 | NE 23 G 30 | 10.00 | Overcast and Breezy | OVC041 | 51.8 | 46.4 | 82% | 29.76 | 0.0 | |||||||
| 05 | 08:35 | NE 20 G 31 | 10.00 | Overcast | SCT018 OVC041 | 53.6 | 48.2 | 82% | 29.74 | 0.0 | |||||||
| 05 | 08:15 | NE 20 G 29 | 10.00 | Overcast | OVC018 | 53.6 | 48.2 | 82% | 29.73 | 0.0 | |||||||
| 05 | 07:55 | NE 20 G 25 | 10.00 | Overcast | OVC016 | 53.6 | 48.2 | 82% | 29.72 | 0.0 | |||||||
| 05 | 07:35 | NE 26 G 32 | 10.00 | Overcast and Windy | BKN014 OVC036 | 53.6 | 50 | 88% | 29.72 | 0.0 | |||||||
| 05 | 07:15 | NE 22 G 33 | 10.00 | Overcast and Breezy | BKN014 OVC036 | 55.4 | 50 | 82% | 29.72 | 0.0 | |||||||
| 05 | 06:55 | NE 17 G 23 | 10.00 | Overcast | BKN014 OVC036 | 57.2 | 51.8 | 82% | 29.71 | 0.0 | |||||||
| 05 | 06:35 | NE 18 G 26 | 10.00 | Overcast | SCT014 OVC036 | 57.2 | 51.8 | 82% | 29.69 | 0.0 | |||||||
| 05 | 06:15 | NE 20 G 23 | 10.00 | Overcast | SCT017 BKN034 OVC040 | 59 | 53.6 | 82% | 29.68 | 0.0 | |||||||
| 05 | 05:55 | NE 15 | 10.00 | Overcast | SCT017 BKN024 OVC042 | 59 | 55.4 | 88% | 29.67 | 0.0 | |||||||
| 05 | 05:35 | NE 20 | 10.00 | Overcast | SCT015 SCT021 OVC040 | 60.8 | 57.2 | 88% | 29.66 | 0.0 | |||||||
| 05 | 05:15 | N 9 | 10.00 | Overcast | OVC040 | 62.6 | 59 | 88% | 29.67 | 0.0 | |||||||
| 05 | 04:55 | NE 13 | 10.00 | Overcast | OVC040 | 62.6 | 59 | 88% | 29.66 | 0.0 | |||||||
| 05 | 04:35 | NE 12 | 10.00 | Overcast | OVC040 | 60.8 | 57.2 | 88% | 29.66 | 0.0 | |||||||
| 05 | 04:15 | NE 12 | 10.00 | Overcast | OVC040 | 60.8 | 57.2 | 88% | 29.65 | 0.0 | |||||||
| 05 | 03:55 | E 12 | 10.00 | Overcast | OVC044 | 60.8 | 57.2 | 88% | 29.64 | 0.0 | |||||||
| 05 | 03:35 | N 13 G 18 | 10.00 | Overcast | SCT044 OVC060 | 62.6 | 57.2 | 83% | 29.64 | 0.0 | |||||||
| Date | Time (cdt) | Wind (mph) | Vis. (mi.) | Weather | Sky Cond. | Air | Dwpt | Max. | Min. | Relative Humidity | Wind Chill (°F) | Heat Index (°F) | altimeter (in) | sea level (mb) | 1 hr | 3 hr | 6 hr |
| 6 hour | |||||||||||||||||
| Temperature (ºF) | Pressure | Precipitation (in) | |||||||||||||||